3N6 weather

Old Bridge Airport
Old Bridge, New Jersey, United States

Public forecast

Using degrees Fahrenheit for public forecast. Weather courtesy of forecast.io.

METAR (pilot weather report)

Closest report is Monmouth Executive Airport, 13.3 nm (24.6 km) SE. Retrieved 2019/06/25 06:56 UTC (47 minutes ago):

KBLM 250656Z AUTO 15004KT 10SM SCT090 22/21 A2984 RMK AO2 SLP103 T02220206

TAF (pilot weather forecast)

Closest forecast is Trenton Mercer Airport, 21.6 nm (40.0 km) W. Retrieved 2019/06/25 06:24 UTC (1 hour ago):

TAF KTTN 250522Z 2506/2606 17004KT P6SM BKN120 FM250900 VRB03KT P6SM -SHRA SCT020 OVC045 FM251000 19004KT 4SM -SHRA BR OVC015 TEMPO 2510/2513 2SM TSRA OVC008CB FM251400 25006KT P6SM BKN015 FM251700 28008G16KT P6SM SCT045 FM260000 30006KT P6SM BKN250 FM260400 VRB03KT P6SM SCT250